Time;durP1;ratioP1;P1;durP2;ratioP2;P2;SDS_P1;SDS_P2;PMS_P1;PMS_P2;Temp;Humidity;BMP_temperature;BMP_pressure;BME280_temperature;BME280_humidity;BME280_pressure;Samples;Min_cycle;Max_cycle;Signal;HPM_P1;HPM_P2
2022/10/15 00:00:44;;;;;;;3.80;1.70;;;;;;;;;;4953074;28;20135;-69
2022/10/15 00:03:09;;;;;;;4.60;1.70;;;;;;;;;;4952802;28;20059;-69
2022/10/15 00:05:39;;;;;;;2.30;1.50;;;;;;;;;;4952942;29;20073;-69
2022/10/15 00:08:06;;;;;;;3.40;1.88;;;;;;;;;;4952648;28;20039;-69
2022/10/15 00:10:32;;;;;;;3.75;1.55;;;;;;;;;;4952625;28;20366;-69
2022/10/15 00:12:59;;;;;;;3.05;1.65;;;;;;;;;;4952356;28;20054;-69
2022/10/15 00:15:25;;;;;;;2.75;1.70;;;;;;;;;;4952989;28;20426;-69
2022/10/15 00:17:50;;;;;;;2.50;1.80;;;;;;;;;;4952943;28;20066;-69
2022/10/15 00:20:16;;;;;;;2.42;1.70;;;;;;;;;;4953021;28;20039;-68
2022/10/15 00:22:42;;;;;;;3.10;2.03;;;;;;;;;;4953018;28;20043;-69
2022/10/15 00:25:09;;;;;;;3.10;1.73;;;;;;;;;;4951957;28;20074;-69
2022/10/15 00:27:36;;;;;;;2.63;1.45;;;;;;;;;;4951394;28;20107;-68
2022/10/15 00:30:03;;;;;;;4.28;1.70;;;;;;;;;;4951658;29;20107;-68
2022/10/15 00:32:30;;;;;;;2.80;1.77;;;;;;;;;;4953299;28;20022;-68
2022/10/15 00:34:56;;;;;;;2.78;1.75;;;;;;;;;;4956804;28;20527;-68
2022/10/15 00:37:22;;;;;;;5.32;1.70;;;;;;;;;;4970456;28;20118;-68
2022/10/15 00:39:49;;;;;;;3.05;1.77;;;;;;;;;;4955785;28;20031;-68
2022/10/15 00:42:15;;;;;;;2.42;1.67;;;;;;;;;;4956327;28;20369;-69
2022/10/15 00:44:55;;;;;;;2.63;1.50;;;;;;;;;;4954047;29;20123;-69
2022/10/15 00:47:24;;;;;;;3.67;1.75;;;;;;;;;;4956073;29;20433;-69
2022/10/15 00:50:01;;;;;;;2.92;1.90;;;;;;;;;;4956126;28;20030;-69
2022/10/15 00:52:30;;;;;;;3.35;1.88;;;;;;;;;;4953102;29;20031;-69
2022/10/15 00:55:08;;;;;;;4.10;1.70;;;;;;;;;;4954318;29;20049;-68
2022/10/15 00:57:35;;;;;;;5.40;1.75;;;;;;;;;;4955762;28;20070;-69
2022/10/15 01:00:06;;;;;;;2.35;1.50;;;;;;;;;;4955876;28;20035;-69
2022/10/15 01:02:32;;;;;;;5.25;1.70;;;;;;;;;;4955693;28;20506;-69
2022/10/15 01:04:58;;;;;;;2.40;1.60;;;;;;;;;;4951925;28;20193;-69
2022/10/15 01:07:24;;;;;;;2.72;1.65;;;;;;;;;;4955767;28;20480;-69
2022/10/15 01:09:50;;;;;;;3.65;1.55;;;;;;;;;;4955653;28;20490;-68
2022/10/15 01:12:42;;;;;;;3.85;1.77;;;;;;;;;;4953286;28;20036;-69
2022/10/15 01:15:24;;;;;;;2.47;1.50;;;;;;;;;;4954379;29;20023;-68
2022/10/15 01:17:58;;;;;;;1.67;1.30;;;;;;;;;;4955197;28;20031;-68
2022/10/15 01:21:00;;;;;;;2.90;1.50;;;;;;;;;;4947609;29;20031;-69
2022/10/15 01:23:45;;;;;;;3.63;1.83;;;;;;;;;;4955659;28;20046;-68
2022/10/15 01:26:47;;;;;;;2.47;1.65;;;;;;;;;;4955673;29;20066;-68
2022/10/15 01:29:51;;;;;;;2.97;1.90;;;;;;;;;;4969881;28;20042;-68
2022/10/15 01:32:27;;;;;;;4.30;2.05;;;;;;;;;;4967018;28;20059;-68
2022/10/15 01:35:18;;;;;;;4.07;1.98;;;;;;;;;;4952364;29;20557;-68
2022/10/15 01:37:56;;;;;;;3.03;2.10;;;;;;;;;;4953743;28;20047;-68
2022/10/15 01:40:48;;;;;;;4.93;2.40;;;;;;;;;;4951651;29;20074;-68
2022/10/15 01:43:25;;;;;;;5.47;2.60;;;;;;;;;;4954316;29;20081;-69
2022/10/15 01:46:22;;;;;;;5.00;2.72;;;;;;;;;;4949188;28;20050;-69
2022/10/15 01:49:01;;;;;;;4.55;2.58;;;;;;;;;;4953647;29;20051;-68
2022/10/15 01:51:29;;;;;;;4.07;2.35;;;;;;;;;;4955312;28;20433;-68
2022/10/15 01:53:59;;;;;;;5.05;2.70;;;;;;;;;;4965337;28;20023;-69
2022/10/15 01:56:27;;;;;;;5.00;2.65;;;;;;;;;;4974206;28;20094;-69
2022/10/15 01:58:55;;;;;;;3.53;2.05;;;;;;;;;;4936846;28;20086;-68
2022/10/15 02:01:21;;;;;;;2.55;1.80;;;;;;;;;;4933807;29;20114;-68
2022/10/15 02:03:49;;;;;;;4.43;2.20;;;;;;;;;;4934361;29;20199;-68
2022/10/15 02:06:29;;;;;;;3.65;1.95;;;;;;;;;;4934250;29;20395;-68
2022/10/15 02:09:01;;;;;;;3.15;1.85;;;;;;;;;;4951686;29;20046;-69
2022/10/15 02:11:28;;;;;;;3.85;2.17;;;;;;;;;;4954503;28;20043;-69
2022/10/15 02:14:14;;;;;;;2.85;1.80;;;;;;;;;;4952712;29;20034;-68
2022/10/15 02:16:46;;;;;;;4.00;2.53;;;;;;;;;;4955025;28;20035;-68
2022/10/15 02:19:22;;;;;;;4.57;2.40;;;;;;;;;;4954476;28;20035;-69
2022/10/15 02:22:27;;;;;;;5.85;2.28;;;;;;;;;;4952408;29;20437;-70
2022/10/15 02:24:57;;;;;;;2.33;1.60;;;;;;;;;;4934381;29;20123;-71
2022/10/15 02:27:26;;;;;;;4.53;2.22;;;;;;;;;;4934058;29;20504;-67
2022/10/15 02:29:53;;;;;;;3.33;2.00;;;;;;;;;;4934365;29;20039;-69
2022/10/15 02:32:22;;;;;;;2.63;1.80;;;;;;;;;;4937196;28;20039;-68
2022/10/15 02:34:49;;;;;;;11.27;2.00;;;;;;;;;;4954799;29;20131;-68
2022/10/15 02:37:19;;;;;;;5.30;2.08;;;;;;;;;;4952379;28;20458;-68
2022/10/15 02:39:46;;;;;;;2.47;1.77;;;;;;;;;;4951933;29;20050;-68
2022/10/15 02:42:14;;;;;;;4.40;2.05;;;;;;;;;;4952628;29;20115;-69
2022/10/15 02:44:40;;;;;;;4.10;2.15;;;;;;;;;;4953303;29;20130;-69
2022/10/15 02:47:06;;;;;;;5.15;2.28;;;;;;;;;;4952536;28;20058;-69
2022/10/15 02:49:32;;;;;;;3.47;1.77;;;;;;;;;;4953060;29;20082;-68
2022/10/15 02:51:58;;;;;;;5.55;1.85;;;;;;;;;;4952365;29;20135;-68
2022/10/15 02:54:24;;;;;;;4.47;2.17;;;;;;;;;;4936881;29;20117;-67
2022/10/15 02:56:50;;;;;;;3.83;2.08;;;;;;;;;;4953283;28;20478;-69
2022/10/15 02:59:18;;;;;;;4.28;2.28;;;;;;;;;;4952642;29;20039;-69
2022/10/15 03:01:45;;;;;;;3.97;1.80;;;;;;;;;;4952529;29;20553;-70
2022/10/15 03:04:13;;;;;;;3.80;1.90;;;;;;;;;;4953829;28;20066;-69
2022/10/15 03:06:39;;;;;;;2.75;1.70;;;;;;;;;;4954123;28;20107;-68
2022/10/15 03:09:05;;;;;;;2.85;1.50;;;;;;;;;;4932936;29;20035;-68
2022/10/15 03:11:31;;;;;;;2.33;1.60;;;;;;;;;;4933451;29;20040;-68
2022/10/15 03:13:57;;;;;;;3.65;1.70;;;;;;;;;;4933156;29;20470;-69
2022/10/15 03:16:23;;;;;;;7.50;1.88;;;;;;;;;;4933147;29;20039;-69
2022/10/15 03:18:49;;;;;;;2.83;1.40;;;;;;;;;;4934451;29;20375;-69
2022/10/15 03:21:17;;;;;;;4.05;1.63;;;;;;;;;;4933247;29;20615;-69
2022/10/15 03:23:44;;;;;;;3.13;1.60;;;;;;;;;;4948790;29;20038;-69
2022/10/15 03:26:17;;;;;;;3.55;1.63;;;;;;;;;;4952141;28;20035;-68
2022/10/15 03:28:43;;;;;;;2.25;1.50;;;;;;;;;;4952037;29;20086;-69
2022/10/15 03:31:13;;;;;;;7.63;1.65;;;;;;;;;;4951803;29;20035;-69
2022/10/15 03:33:39;;;;;;;4.85;1.58;;;;;;;;;;4953562;28;20106;-70
2022/10/15 03:36:06;;;;;;;1.75;1.35;;;;;;;;;;4952368;29;20118;-69
2022/10/15 03:38:34;;;;;;;3.25;1.30;;;;;;;;;;4948664;28;20031;-68
2022/10/15 03:41:02;;;;;;;2.53;1.13;;;;;;;;;;4953373;28;20429;-68
2022/10/15 03:43:34;;;;;;;2.17;1.30;;;;;;;;;;4950950;29;20409;-69
2022/10/15 03:46:05;;;;;;;4.10;1.77;;;;;;;;;;4951651;29;20111;-68
2022/10/15 03:48:36;;;;;;;3.08;1.60;;;;;;;;;;4951864;28;20134;-68
2022/10/15 03:51:01;;;;;;;13.30;2.17;;;;;;;;;;4932827;29;20048;-69
2022/10/15 03:53:27;;;;;;;3.20;1.70;;;;;;;;;;4932652;29;20056;-69
2022/10/15 03:55:53;;;;;;;4.10;1.70;;;;;;;;;;4934719;29;20040;-68
2022/10/15 03:58:19;;;;;;;2.35;1.50;;;;;;;;;;4933908;29;20123;-70
2022/10/15 04:00:52;;;;;;;3.75;1.80;;;;;;;;;;4933491;29;20055;-69
2022/10/15 04:03:18;;;;;;;2.20;1.70;;;;;;;;;;4933769;29;20078;-69
2022/10/15 04:05:54;;;;;;;4.15;1.83;;;;;;;;;;4933902;29;20032;-67
2022/10/15 04:08:22;;;;;;;5.95;1.90;;;;;;;;;;4935928;29;20482;-68
2022/10/15 04:10:50;;;;;;;6.30;1.85;;;;;;;;;;4937961;29;20059;-68
2022/10/15 04:13:16;;;;;;;5.15;1.90;;;;;;;;;;4937756;29;20047;-68
2022/10/15 04:15:42;;;;;;;5.63;2.10;;;;;;;;;;4937674;29;20126;-68
2022/10/15 04:18:12;;;;;;;4.13;2.22;;;;;;;;;;4937399;29;20050;-68
2022/10/15 04:20:41;;;;;;;3.33;1.98;;;;;;;;;;4937308;29;20043;-69
2022/10/15 04:23:18;;;;;;;5.47;2.10;;;;;;;;;;4937353;29;20039;-70
2022/10/15 04:26:05;;;;;;;5.53;2.30;;;;;;;;;;4938480;29;20070;-69
2022/10/15 04:28:32;;;;;;;3.72;2.08;;;;;;;;;;4937041;29;20039;-68
2022/10/15 04:31:00;;;;;;;6.93;2.20;;;;;;;;;;4936913;29;20118;-69
2022/10/15 04:33:26;;;;;;;5.35;1.90;;;;;;;;;;4936986;29;20051;-68
2022/10/15 04:36:10;;;;;;;7.18;3.05;;;;;;;;;;4937484;29;20472;-67
2022/10/15 04:39:08;;;;;;;7.03;2.90;;;;;;;;;;4931045;29;20047;-68
2022/10/15 04:41:38;;;;;;;3.50;2.03;;;;;;;;;;4937294;29;20462;-69
2022/10/15 04:44:08;;;;;;;3.83;2.40;;;;;;;;;;4937289;29;20152;-68
2022/10/15 04:46:34;;;;;;;5.63;2.22;;;;;;;;;;4950127;29;20174;-68
2022/10/15 04:49:23;;;;;;;4.30;2.42;;;;;;;;;;4951572;29;20426;-67
2022/10/15 04:51:49;;;;;;;4.53;2.40;;;;;;;;;;4956031;29;20031;-70
2022/10/15 04:54:38;;;;;;;5.40;2.40;;;;;;;;;;4951248;29;20453;-68
2022/10/15 04:57:05;;;;;;;4.43;2.20;;;;;;;;;;4955884;29;20062;-69
2022/10/15 04:59:31;;;;;;;8.95;3.10;;;;;;;;;;4955886;29;20108;-69
2022/10/15 05:02:32;;;;;;;5.72;2.72;;;;;;;;;;4916045;29;20094;-69
2022/10/15 05:05:18;;;;;;;6.47;2.90;;;;;;;;;;4934543;29;20075;-69
2022/10/15 05:07:59;;;;;;;7.65;2.65;;;;;;;;;;4936321;29;20147;-68
2022/10/15 05:10:25;;;;;;;5.47;2.72;;;;;;;;;;4937572;29;20402;-68
2022/10/15 05:12:52;;;;;;;5.13;2.83;;;;;;;;;;4947120;29;20114;-69
2022/10/15 05:15:26;;;;;;;5.40;2.90;;;;;;;;;;4955719;29;20135;-69
2022/10/15 05:17:52;;;;;;;4.15;2.38;;;;;;;;;;4956411;28;20034;-68
2022/10/15 05:20:18;;;;;;;6.30;3.15;;;;;;;;;;4954233;28;20435;-67
2022/10/15 05:22:45;;;;;;;5.68;3.03;;;;;;;;;;4955402;29;20035;-69
2022/10/15 05:25:12;;;;;;;7.30;3.30;;;;;;;;;;4955351;29;20031;-70
2022/10/15 05:27:40;;;;;;;8.98;3.50;;;;;;;;;;4955073;28;20050;-69
2022/10/15 05:30:06;;;;;;;4.88;2.90;;;;;;;;;;4955222;29;20036;-69
2022/10/15 05:32:51;;;;;;;7.10;3.17;;;;;;;;;;4955303;29;20042;-69
2022/10/15 05:35:19;;;;;;;4.80;3.42;;;;;;;;;;4955119;29;20039;-71
2022/10/15 05:37:53;;;;;;;9.55;3.83;;;;;;;;;;4955203;29;20039;-69
2022/10/15 05:40:19;;;;;;;5.13;3.67;;;;;;;;;;4965598;28;20042;-74
2022/10/15 05:42:56;;;;;;;6.97;3.95;;;;;;;;;;4970877;28;20482;-72
2022/10/15 05:45:22;;;;;;;6.63;3.45;;;;;;;;;;4946554;29;20130;-76
2022/10/15 05:47:52;;;;;;;6.85;3.38;;;;;;;;;;4937038;29;20030;-72
2022/10/15 05:50:18;;;;;;;6.80;3.17;;;;;;;;;;4936223;29;20131;-70
2022/10/15 05:52:47;;;;;;;4.70;2.88;;;;;;;;;;4934910;29;20106;-74
2022/10/15 05:55:19;;;;;;;5.05;3.47;;;;;;;;;;4935383;29;20040;-70
2022/10/15 05:57:44;;;;;;;11.90;4.05;;;;;;;;;;4946153;29;20035;-71
2022/10/15 06:00:11;;;;;;;6.70;3.95;;;;;;;;;;4955531;28;20036;-71
2022/10/15 06:02:40;;;;;;;6.78;4.13;;;;;;;;;;4954411;29;20054;-72
2022/10/15 06:05:06;;;;;;;9.10;4.13;;;;;;;;;;4947263;28;20035;-71
2022/10/15 06:07:32;;;;;;;9.38;4.05;;;;;;;;;;4955808;28;20035;-72
2022/10/15 06:10:03;;;;;;;6.18;3.60;;;;;;;;;;4954597;28;20035;-72
2022/10/15 06:12:32;;;;;;;5.70;3.47;;;;;;;;;;4946752;29;20036;-70
2022/10/15 06:14:58;;;;;;;6.03;3.20;;;;;;;;;;4934978;29;20035;-70
2022/10/15 06:17:24;;;;;;;8.65;3.05;;;;;;;;;;4935939;29;20387;-71
2022/10/15 06:19:50;;;;;;;7.78;3.45;;;;;;;;;;4936427;29;20074;-75
2022/10/15 06:22:16;;;;;;;4.68;2.90;;;;;;;;;;4936345;29;20453;-70
2022/10/15 06:24:42;;;;;;;5.28;2.72;;;;;;;;;;4936223;29;20031;-70
2022/10/15 06:27:08;;;;;;;5.13;3.00;;;;;;;;;;4936171;29;20058;-77
2022/10/15 06:29:34;;;;;;;8.05;2.80;;;;;;;;;;4951753;28;20098;-73
2022/10/15 06:32:00;;;;;;;8.80;2.72;;;;;;;;;;4943597;28;20179;-72
2022/10/15 06:34:26;;;;;;;6.07;2.75;;;;;;;;;;4963963;28;20034;-71
2022/10/15 06:36:52;;;;;;;4.40;2.80;;;;;;;;;;4973569;28;20042;-72
2022/10/15 06:39:18;;;;;;;6.07;3.00;;;;;;;;;;4973585;28;20047;-71
2022/10/15 06:41:44;;;;;;;6.07;3.03;;;;;;;;;;4954431;28;20034;-70
2022/10/15 06:44:10;;;;;;;6.20;2.70;;;;;;;;;;4934468;29;20475;-71
2022/10/15 06:46:36;;;;;;;6.25;2.90;;;;;;;;;;4934392;29;20115;-70
2022/10/15 06:49:02;;;;;;;3.85;2.78;;;;;;;;;;4933995;29;20466;-76
2022/10/15 06:51:28;;;;;;;4.30;2.88;;;;;;;;;;4934401;29;20035;-75
2022/10/15 06:53:54;;;;;;;7.22;2.55;;;;;;;;;;4938043;29;20503;-73
2022/10/15 06:56:19;;;;;;;4.50;2.95;;;;;;;;;;4953728;28;20386;-71
2022/10/15 06:58:45;;;;;;;5.90;3.38;;;;;;;;;;4952865;28;20122;-70
2022/10/15 07:01:11;;;;;;;4.43;2.92;;;;;;;;;;4953695;28;20471;-71
2022/10/15 07:03:38;;;;;;;8.15;3.08;;;;;;;;;;4953594;28;20067;-70
2022/10/15 07:06:08;;;;;;;4.90;3.13;;;;;;;;;;4951148;28;20031;-70
2022/10/15 07:08:34;;;;;;;8.20;3.65;;;;;;;;;;4934793;29;20044;-71
2022/10/15 07:11:05;;;;;;;8.90;3.97;;;;;;;;;;4934968;29;20032;-76
2022/10/15 07:13:32;;;;;;;7.03;3.88;;;;;;;;;;4933971;29;20036;-73
2022/10/15 07:16:10;;;;;;;7.03;3.20;;;;;;;;;;4950098;28;20114;-71
2022/10/15 07:18:36;;;;;;;6.28;2.78;;;;;;;;;;4953121;29;20110;-74
2022/10/15 07:21:04;;;;;;;6.80;3.53;;;;;;;;;;4953411;28;20060;-73
2022/10/15 07:23:30;;;;;;;9.13;4.30;;;;;;;;;;4954368;28;20482;-73
2022/10/15 07:25:57;;;;;;;6.32;3.33;;;;;;;;;;4964020;28;20039;-71
2022/10/15 07:28:23;;;;;;;10.85;3.63;;;;;;;;;;4971885;28;20055;-72
2022/10/15 07:30:50;;;;;;;7.35;3.20;;;;;;;;;;4939869;28;20471;-72
2022/10/15 07:33:16;;;;;;;5.22;3.17;;;;;;;;;;4937136;29;20034;-71
2022/10/15 07:35:50;;;;;;;5.88;3.13;;;;;;;;;;4952667;28;20497;-70
2022/10/15 07:38:16;;;;;;;4.30;2.80;;;;;;;;;;4952741;29;20394;-74
2022/10/15 07:40:42;;;;;;;4.68;2.95;;;;;;;;;;4952718;28;20031;-71
2022/10/15 07:43:08;;;;;;;7.65;3.30;;;;;;;;;;4951896;28;20031;-77
2022/10/15 07:45:36;;;;;;;5.53;3.20;;;;;;;;;;4950416;28;20123;-76
2022/10/15 07:48:02;;;;;;;5.90;3.28;;;;;;;;;;4933962;29;20102;-70
2022/10/15 07:50:28;;;;;;;6.40;3.33;;;;;;;;;;4942019;28;20039;-71
2022/10/15 07:52:59;;;;;;;6.18;3.10;;;;;;;;;;4951750;28;20035;-76
2022/10/15 07:55:24;;;;;;;4.03;2.70;;;;;;;;;;4951487;28;20039;-69
2022/10/15 07:57:50;;;;;;;6.97;3.10;;;;;;;;;;4944770;28;20405;-72
2022/10/15 08:00:16;;;;;;;7.32;3.10;;;;;;;;;;4952607;28;20081;-70
2022/10/15 08:02:42;;;;;;;5.43;2.67;;;;;;;;;;4945364;29;20039;-73
2022/10/15 08:05:08;;;;;;;10.55;3.30;;;;;;;;;;4952035;29;20394;-75
2022/10/15 08:07:34;;;;;;;7.03;3.60;;;;;;;;;;4950935;29;20046;-75
2022/10/15 08:10:05;;;;;;;7.57;3.38;;;;;;;;;;4952552;29;20070;-71
2022/10/15 08:12:31;;;;;;;7.65;3.20;;;;;;;;;;4949160;29;20041;-73
2022/10/15 08:14:56;;;;;;;7.32;3.78;;;;;;;;;;4952637;28;20019;-70
2022/10/15 08:17:22;;;;;;;5.68;3.63;;;;;;;;;;4949173;29;20058;-74
2022/10/15 08:19:49;;;;;;;7.13;3.08;;;;;;;;;;4949687;29;20034;-70
2022/10/15 08:22:14;;;;;;;5.45;2.97;;;;;;;;;;4949218;29;20023;-69
2022/10/15 08:24:40;;;;;;;5.80;3.30;;;;;;;;;;4953353;28;20027;-74
2022/10/15 08:27:06;;;;;;;7.60;3.60;;;;;;;;;;4953180;28;20035;-76
2022/10/15 08:29:32;;;;;;;12.45;4.35;;;;;;;;;;4950781;28;20027;-69
2022/10/15 08:31:58;;;;;;;11.90;4.18;;;;;;;;;;4952423;28;20486;-77
2022/10/15 08:34:25;;;;;;;7.55;3.88;;;;;;;;;;4949605;28;20385;-79
2022/10/15 08:36:51;;;;;;;17.73;11.68;;;;;;;;;;4953034;28;20126;-75
2022/10/15 08:39:17;;;;;;;18.13;13.00;;;;;;;;;;4953079;28;20043;-75
2022/10/15 08:41:48;;;;;;;17.85;13.60;;;;;;;;;;4953437;28;20038;-74
2022/10/15 08:44:25;;;;;;;24.27;16.80;;;;;;;;;;4951849;28;20031;-77
2022/10/15 08:47:06;;;;;;;23.25;16.80;;;;;;;;;;4937892;29;20067;-72
2022/10/15 08:49:45;;;;;;;15.23;10.95;;;;;;;;;;4933809;29;20059;-73
2022/10/15 08:52:40;;;;;;;14.40;8.20;;;;;;;;;;4933168;29;20499;-72
2022/10/15 08:55:11;;;;;;;11.45;8.43;;;;;;;;;;4934880;29;20087;-71
2022/10/15 08:57:42;;;;;;;20.08;11.75;;;;;;;;;;4937419;29;20050;-71
2022/10/15 09:00:20;;;;;;;17.80;12.15;;;;;;;;;;4945053;29;20133;-70
2022/10/15 09:02:52;;;;;;;7.03;5.15;;;;;;;;;;4956426;29;20062;-70
2022/10/15 09:05:28;;;;;;;8.27;3.47;;;;;;;;;;4954571;28;20047;-70
2022/10/15 09:08:20;;;;;;;4.20;3.00;;;;;;;;;;4956803;28;20490;-71
2022/10/15 09:10:51;;;;;;;4.40;3.45;;;;;;;;;;4956867;28;20047;-71
2022/10/15 09:13:21;;;;;;;6.45;4.20;;;;;;;;;;4956491;28;20039;-71
2022/10/15 09:15:56;;;;;;;5.32;3.20;;;;;;;;;;4956735;28;20038;-69
2022/10/15 09:18:29;;;;;;;3.70;2.83;;;;;;;;;;4956522;28;20043;-70
2022/10/15 09:20:57;;;;;;;5.80;2.80;;;;;;;;;;4956626;28;20039;-69
2022/10/15 09:23:26;;;;;;;4.70;2.78;;;;;;;;;;4955803;28;20027;-72
2022/10/15 09:26:18;;;;;;;3.83;2.75;;;;;;;;;;4955181;29;20031;-72
2022/10/15 09:28:52;;;;;;;5.97;3.00;;;;;;;;;;4935899;28;20074;-71
2022/10/15 09:31:26;;;;;;;6.57;2.90;;;;;;;;;;4955591;28;20035;-71
2022/10/15 09:33:58;;;;;;;5.15;2.80;;;;;;;;;;4955470;29;20110;-68
2022/10/15 09:36:51;;;;;;;5.88;3.08;;;;;;;;;;4955835;28;20043;-72
2022/10/15 09:39:38;;;;;;;3.58;2.75;;;;;;;;;;4955890;29;20442;-69
2022/10/15 09:42:29;;;;;;;7.22;3.70;;;;;;;;;;4956313;28;20385;-72
2022/10/15 09:45:00;;;;;;;4.78;3.63;;;;;;;;;;4956206;29;20470;-71
2022/10/15 09:47:31;;;;;;;8.23;3.95;;;;;;;;;;4955939;28;20035;-77
2022/10/15 09:50:05;;;;;;;6.97;4.78;;;;;;;;;;4956113;28;20050;-68
2022/10/15 09:52:52;;;;;;;7.43;4.47;;;;;;;;;;4955762;29;20042;-68
2022/10/15 09:55:59;;;;;;;6.75;4.55;;;;;;;;;;4956184;28;20394;-70
2022/10/15 09:58:36;;;;;;;5.50;3.58;;;;;;;;;;4953153;29;20047;-72
2022/10/15 10:01:05;;;;;;;5.78;2.90;;;;;;;;;;4956134;29;20051;-71
2022/10/15 10:03:38;;;;;;;8.40;4.68;;;;;;;;;;4949760;28;20039;-74
2022/10/15 10:06:06;;;;;;;6.00;3.90;;;;;;;;;;4936201;29;20094;-71
2022/10/15 10:08:46;;;;;;;8.85;4.10;;;;;;;;;;4936175;29;20406;-78
2022/10/15 10:11:12;;;;;;;6.45;4.03;;;;;;;;;;4934984;29;20039;-72
2022/10/15 10:13:48;;;;;;;4.93;3.08;;;;;;;;;;4936448;29;20035;-71
2022/10/15 10:16:17;;;;;;;3.80;2.97;;;;;;;;;;4935385;29;20043;-71
2022/10/15 10:18:49;;;;;;;8.68;3.50;;;;;;;;;;4935693;29;20024;-71
2022/10/15 10:21:29;;;;;;;4.97;3.78;;;;;;;;;;4935798;29;20035;-69
2022/10/15 10:24:16;;;;;;;6.00;3.33;;;;;;;;;;4939031;29;20448;-73
2022/10/15 10:26:43;;;;;;;7.40;4.00;;;;;;;;;;4935069;29;20042;-70
2022/10/15 10:29:18;;;;;;;4.78;3.15;;;;;;;;;;4936390;29;20034;-71
2022/10/15 10:31:49;;;;;;;3.75;2.72;;;;;;;;;;4935859;29;20489;-74
2022/10/15 10:34:30;;;;;;;4.45;3.00;;;;;;;;;;4936009;29;20043;-75
2022/10/15 10:37:02;;;;;;;5.77;2.83;;;;;;;;;;4936169;29;20035;-72
2022/10/15 10:39:30;;;;;;;5.22;3.17;;;;;;;;;;4936167;29;20162;-75
2022/10/15 10:42:02;;;;;;;6.63;4.15;;;;;;;;;;4936374;29;20382;-71
2022/10/15 10:44:30;;;;;;;5.18;3.72;;;;;;;;;;4935755;29;20055;-74
2022/10/15 10:47:02;;;;;;;6.47;3.47;;;;;;;;;;4936033;29;20032;-75
2022/10/15 10:49:34;;;;;;;11.10;7.23;;;;;;;;;;4936107;29;20475;-71
2022/10/15 10:52:00;;;;;;;13.02;7.95;;;;;;;;;;4936069;29;20273;-74
2022/10/15 10:54:27;;;;;;;8.00;4.97;;;;;;;;;;4934086;29;20031;-73
2022/10/15 10:56:55;;;;;;;6.88;5.15;;;;;;;;;;4935611;29;20398;-71
2022/10/15 10:59:29;;;;;;;10.68;7.22;;;;;;;;;;4935895;29;20043;-70
2022/10/15 11:01:58;;;;;;;7.60;4.70;;;;;;;;;;4935714;29;20047;-70
2022/10/15 11:04:29;;;;;;;5.28;3.25;;;;;;;;;;4935585;28;20038;-68
2022/10/15 11:07:32;;;;;;;9.68;3.97;;;;;;;;;;4936380;28;20047;-71
2022/10/15 11:10:16;;;;;;;5.90;3.40;;;;;;;;;;4973886;28;20126;-70
2022/10/15 11:12:57;;;;;;;9.90;6.47;;;;;;;;;;4973881;28;20470;-70
2022/10/15 11:15:36;;;;;;;11.27;7.40;;;;;;;;;;4969949;28;20073;-69
2022/10/15 11:18:25;;;;;;;18.00;9.98;;;;;;;;;;4944360;28;20070;-68
2022/10/15 11:21:09;;;;;;;9.98;6.03;;;;;;;;;;4924084;29;20230;-70
2022/10/15 11:23:59;;;;;;;6.60;4.32;;;;;;;;;;4945007;29;20047;-74
2022/10/15 11:27:07;;;;;;;6.20;4.30;;;;;;;;;;4954068;28;20039;-72
2022/10/15 11:29:57;;;;;;;5.18;3.70;;;;;;;;;;4938089;28;20135;-69
2022/10/15 11:32:58;;;;;;;4.35;3.38;;;;;;;;;;4934219;29;20048;-76
2022/10/15 11:35:42;;;;;;;5.53;3.67;;;;;;;;;;4933529;29;20051;-74
2022/10/15 11:38:26;;;;;;;5.97;2.97;;;;;;;;;;4934802;29;20055;-74
2022/10/15 11:41:06;;;;;;;4.63;2.58;;;;;;;;;;4934634;29;20046;-71
2022/10/15 11:44:16;;;;;;;5.05;3.03;;;;;;;;;;4934722;29;20473;-74
2022/10/15 11:47:00;;;;;;;6.57;3.28;;;;;;;;;;4934681;29;20049;-75
2022/10/15 11:49:41;;;;;;;7.75;3.05;;;;;;;;;;4935235;29;20044;-75
2022/10/15 11:52:27;;;;;;;5.10;3.13;;;;;;;;;;4935004;29;20127;-70
2022/10/15 11:55:11;;;;;;;4.30;2.60;;;;;;;;;;4935329;28;20146;-71
2022/10/15 11:57:39;;;;;;;4.20;2.40;;;;;;;;;;4952427;28;20390;-71
2022/10/15 12:00:25;;;;;;;8.77;2.90;;;;;;;;;;4952745;28;20027;-70
2022/10/15 12:02:53;;;;;;;3.88;2.75;;;;;;;;;;4950353;29;20039;-70
2022/10/15 12:05:34;;;;;;;3.60;2.38;;;;;;;;;;4954255;28;20159;-70
2022/10/15 12:08:02;;;;;;;3.92;2.70;;;;;;;;;;4954214;28;20167;-75
2022/10/15 12:10:33;;;;;;;6.40;3.35;;;;;;;;;;4954492;28;20359;-70
2022/10/15 12:13:27;;;;;;;6.20;2.70;;;;;;;;;;4954451;28;20039;-70
2022/10/15 12:16:06;;;;;;;7.70;3.55;;;;;;;;;;4954358;29;20038;-68
2022/10/15 12:18:47;;;;;;;5.05;2.47;;;;;;;;;;4953975;28;20514;-74
2022/10/15 12:21:32;;;;;;;3.80;2.53;;;;;;;;;;4953900;28;20606;-75
2022/10/15 12:23:58;;;;;;;3.50;2.40;;;;;;;;;;4953951;29;20033;-71
2022/10/15 12:26:24;;;;;;;5.22;3.33;;;;;;;;;;4960047;28;20027;-69
2022/10/15 12:28:53;;;;;;;20.20;11.57;;;;;;;;;;4973704;28;20093;-70
2022/10/15 12:31:19;;;;;;;10.10;7.15;;;;;;;;;;4976553;28;20049;-73
2022/10/15 12:33:57;;;;;;;17.58;12.23;;;;;;;;;;4976342;28;20027;-71
2022/10/15 12:36:29;;;;;;;7.35;5.15;;;;;;;;;;4971255;28;20061;-70
2022/10/15 12:39:20;;;;;;;10.33;6.20;;;;;;;;;;4938065;29;20032;-73
2022/10/15 12:41:48;;;;;;;8.95;4.15;;;;;;;;;;4954205;29;20269;-72
2022/10/15 12:44:20;;;;;;;5.25;3.08;;;;;;;;;;4957092;28;20035;-69
2022/10/15 12:46:48;;;;;;;18.02;9.68;;;;;;;;;;4957096;28;20515;-69
2022/10/15 12:49:26;;;;;;;7.25;4.35;;;;;;;;;;4953969;28;20082;-70
2022/10/15 12:51:57;;;;;;;10.80;5.20;;;;;;;;;;4950540;29;20038;-70
2022/10/15 12:54:45;;;;;;;21.45;10.80;;;;;;;;;;4955329;28;20035;-72
2022/10/15 12:57:29;;;;;;;12.90;7.05;;;;;;;;;;4956232;28;20039;-74
2022/10/15 13:00:00;;;;;;;32.47;19.00;;;;;;;;;;4956784;28;20113;-74
2022/10/15 13:02:45;;;;;;;15.80;7.93;;;;;;;;;;4956514;29;20070;-71
2022/10/15 13:05:27;;;;;;;10.15;4.82;;;;;;;;;;4956604;28;20047;-74
2022/10/15 13:07:54;;;;;;;8.82;3.88;;;;;;;;;;4956599;29;20027;-77
2022/10/15 13:10:28;;;;;;;7.78;3.90;;;;;;;;;;4956775;28;20512;-72
2022/10/15 13:12:57;;;;;;;6.72;3.30;;;;;;;;;;4957050;28;20043;-71
2022/10/15 13:15:26;;;;;;;6.93;3.40;;;;;;;;;;4956506;29;20039;-71
2022/10/15 13:17:55;;;;;;;5.93;3.25;;;;;;;;;;4956781;29;20031;-73
2022/10/15 13:20:41;;;;;;;5.90;3.70;;;;;;;;;;4955100;28;20471;-70
2022/10/15 13:23:17;;;;;;;6.93;3.80;;;;;;;;;;4955255;28;20339;-72
2022/10/15 13:25:43;;;;;;;5.70;3.38;;;;;;;;;;4956717;28;20032;-71
2022/10/15 13:28:30;;;;;;;6.43;3.80;;;;;;;;;;4956603;29;20098;-71
2022/10/15 13:30:56;;;;;;;8.43;4.45;;;;;;;;;;4955226;29;20553;-74
2022/10/15 13:33:23;;;;;;;12.65;4.28;;;;;;;;;;4955523;29;20023;-76
2022/10/15 13:35:49;;;;;;;6.00;4.30;;;;;;;;;;4956878;28;20063;-74
2022/10/15 13:38:24;;;;;;;6.72;4.32;;;;;;;;;;4956589;29;20067;-71
2022/10/15 13:40:52;;;;;;;5.95;3.60;;;;;;;;;;4955772;28;20700;-75
2022/10/15 13:43:23;;;;;;;6.07;3.67;;;;;;;;;;4956586;28;20111;-70
2022/10/15 13:45:53;;;;;;;6.32;3.17;;;;;;;;;;4956369;28;20423;-70
2022/10/15 13:48:22;;;;;;;7.95;3.42;;;;;;;;;;4956583;28;20521;-74
2022/10/15 13:50:53;;;;;;;9.05;3.10;;;;;;;;;;4956215;28;20033;-70
2022/10/15 13:53:30;;;;;;;7.13;2.70;;;;;;;;;;4956179;29;20545;-68
2022/10/15 13:56:02;;;;;;;5.00;2.92;;;;;;;;;;4955967;28;20035;-69
2022/10/15 13:58:36;;;;;;;4.40;2.88;;;;;;;;;;4956311;29;20035;-70
2022/10/15 14:01:24;;;;;;;6.25;2.88;;;;;;;;;;4955861;28;20093;-69
2022/10/15 14:03:55;;;;;;;5.13;2.42;;;;;;;;;;4956601;28;20035;-70
2022/10/15 14:06:23;;;;;;;8.40;5.00;;;;;;;;;;4955586;29;20459;-70
2022/10/15 14:08:54;;;;;;;6.07;3.30;;;;;;;;;;4956024;28;20028;-74
2022/10/15 14:11:21;;;;;;;6.82;3.00;;;;;;;;;;4955870;29;20047;-69
2022/10/15 14:13:51;;;;;;;6.53;2.95;;;;;;;;;;4955556;29;20054;-75
2022/10/15 14:16:29;;;;;;;5.78;2.67;;;;;;;;;;4955670;29;20035;-75
2022/10/15 14:19:10;;;;;;;6.60;2.83;;;;;;;;;;4955916;28;20043;-70
2022/10/15 14:21:43;;;;;;;5.47;2.80;;;;;;;;;;4955678;28;20043;-70
2022/10/15 14:24:31;;;;;;;10.37;2.70;;;;;;;;;;4955296;28;20110;-69
2022/10/15 14:27:03;;;;;;;4.15;2.67;;;;;;;;;;4955360;28;20401;-70
2022/10/15 14:29:42;;;;;;;4.55;2.70;;;;;;;;;;4955992;28;20039;-70
2022/10/15 14:32:51;;;;;;;6.25;3.25;;;;;;;;;;4955620;29;20039;-72
2022/10/15 14:35:32;;;;;;;9.02;3.60;;;;;;;;;;4955819;28;20070;-71
2022/10/15 14:37:59;;;;;;;5.20;2.80;;;;;;;;;;4955415;28;20062;-70
2022/10/15 14:40:25;;;;;;;7.68;4.68;;;;;;;;;;4955458;28;20082;-74
2022/10/15 14:42:54;;;;;;;5.53;3.70;;;;;;;;;;4955495;29;20070;-69
2022/10/15 14:45:24;;;;;;;11.23;4.30;;;;;;;;;;4955137;29;20070;-69
2022/10/15 14:47:54;;;;;;;6.47;3.38;;;;;;;;;;4955104;28;20067;-69
2022/10/15 14:50:31;;;;;;;4.05;2.80;;;;;;;;;;4954789;28;20482;-75
2022/10/15 14:52:59;;;;;;;7.00;3.08;;;;;;;;;;4955042;28;20115;-71
2022/10/15 14:55:31;;;;;;;5.18;3.13;;;;;;;;;;4954796;28;20110;-69
2022/10/15 14:58:00;;;;;;;4.90;2.50;;;;;;;;;;4954780;28;20063;-70
2022/10/15 15:00:32;;;;;;;9.77;4.07;;;;;;;;;;4954786;28;20055;-69
2022/10/15 15:03:01;;;;;;;4.60;2.65;;;;;;;;;;4955219;28;20035;-71
2022/10/15 15:05:28;;;;;;;4.28;2.50;;;;;;;;;;4955003;28;20039;-69
2022/10/15 15:07:56;;;;;;;10.63;3.97;;;;;;;;;;4955122;29;20035;-74
2022/10/15 15:10:24;;;;;;;9.88;4.00;;;;;;;;;;4955020;28;20411;-71
2022/10/15 15:12:55;;;;;;;6.50;3.70;;;;;;;;;;4954561;29;20032;-73